Time;durP1;ratioP1;P1;durP2;ratioP2;P2;SDS_P1;SDS_P2;PMS_P1;PMS_P2;Temp;Humidity;BMP_temperature;BMP_pressure;BME280_temperature;BME280_humidity;BME280_pressure;Samples;Min_cycle;Max_cycle;Signal;HPM_P1;HPM_P2
2021/03/22 00:02:34;;;;;;;6.62;4.58;;;;;;;7.42;49.97;99559.52;2560457;77;25652;-79
2021/03/22 00:05:56;;;;;;;5.95;3.75;;;;;;;7.41;49.94;99566.86;2463092;80;25642;-79
2021/03/22 00:09:17;;;;;;;7.35;3.22;;;;;;;7.41;49.93;99578.95;2463231;80;25565;-77
2021/03/22 00:12:38;;;;;;;5.87;3.98;;;;;;;7.38;49.90;99578.45;2463163;80;25658;-77
2021/03/22 00:16:07;;;;;;;7.10;4.35;;;;;;;7.37;49.89;99584.48;2462739;80;25707;-79
2021/03/22 00:19:30;;;;;;;7.37;4.42;;;;;;;7.36;49.88;99586.63;2463842;80;25756;-78
2021/03/22 00:22:52;;;;;;;5.25;3.83;;;;;;;7.35;49.88;99590.05;2462664;80;25600;-77
2021/03/22 00:26:13;;;;;;;5.45;3.67;;;;;;;7.32;49.86;99593.47;2462214;80;25656;-79
2021/03/22 00:29:34;;;;;;;9.20;4.47;;;;;;;7.31;49.82;99587.80;2462123;80;25894;-76
2021/03/22 00:32:56;;;;;;;6.55;4.85;;;;;;;7.30;49.81;99582.59;2462024;80;25601;-79
2021/03/22 00:36:18;;;;;;;8.13;4.42;;;;;;;7.28;49.80;99596.80;2462683;80;25688;-77
2021/03/22 00:39:40;;;;;;;6.42;3.87;;;;;;;7.27;49.75;99592.88;2462598;80;25565;-76
2021/03/22 00:43:01;;;;;;;5.62;4.10;;;;;;;7.24;49.75;99590.22;2462234;80;25678;-78
2021/03/22 00:46:24;;;;;;;6.40;4.53;;;;;;;7.22;49.76;99594.47;2459730;80;25534;-78
2021/03/22 00:49:46;;;;;;;5.65;3.45;;;;;;;7.21;49.73;99597.91;2462374;80;26487;-76
2021/03/22 00:53:11;;;;;;;4.78;3.70;;;;;;;7.19;49.72;99591.80;2462445;80;25690;-77
2021/03/22 00:56:33;;;;;;;5.12;3.85;;;;;;;7.17;49.69;99597.39;2462560;80;25548;-77
2021/03/22 00:59:55;;;;;;;6.58;3.80;;;;;;;7.15;49.68;99596.04;2462583;80;25718;-76
2021/03/22 01:03:24;;;;;;;7.33;4.35;;;;;;;7.14;49.68;99597.31;2462283;80;25653;-77
2021/03/22 01:06:46;;;;;;;7.72;4.42;;;;;;;7.12;49.66;99605.45;2461829;80;25707;-77
2021/03/22 01:10:13;;;;;;;8.18;3.95;;;;;;;7.09;49.66;99601.09;2462561;80;25533;-77
2021/03/22 01:13:42;;;;;;;6.72;4.00;;;;;;;7.08;49.65;99601.91;2316011;84;25643;-77
2021/03/22 01:17:08;;;;;;;5.55;3.12;;;;;;;7.05;49.63;99600.53;2399640;82;25719;-78
2021/03/22 01:21:09;;;;;;;7.27;4.33;;;;;;;7.07;49.63;99601.04;2577979;75;25647;-76
2021/03/22 01:24:32;;;;;;;6.05;3.60;;;;;;;7.00;49.61;99599.56;2547683;76;25811;-75
2021/03/22 01:27:53;;;;;;;5.92;3.67;;;;;;;6.98;49.61;99607.28;2467146;79;25626;-75
2021/03/22 01:31:16;;;;;;;4.75;3.67;;;;;;;6.96;49.60;99607.68;2475045;79;25566;-76
2021/03/22 01:34:38;;;;;;;4.65;2.72;;;;;;;6.95;49.59;99615.39;2466940;79;25895;-77
2021/03/22 01:38:00;;;;;;;7.05;3.47;;;;;;;6.94;49.57;99613.66;2432509;79;25577;-76
2021/03/22 01:41:52;;;;;;;5.53;3.60;;;;;;;6.92;49.57;99608.45;2452827;79;25617;-76
2021/03/22 01:45:14;;;;;;;5.40;3.65;;;;;;;6.91;49.55;99616.16;2442377;79;25359;-76
2021/03/22 01:48:35;;;;;;;7.97;3.42;;;;;;;6.88;49.56;99616.08;2475765;79;25679;-75
2021/03/22 01:51:58;;;;;;;4.15;2.87;;;;;;;6.86;49.55;99619.52;2496007;78;25827;-75
2021/03/22 01:55:23;;;;;;;4.80;2.60;;;;;;;6.84;49.54;99624.19;2517542;78;25558;-75
2021/03/22 01:58:48;;;;;;;6.35;3.37;;;;;;;6.83;49.54;99623.31;2467989;79;25691;-75
2021/03/22 02:02:10;;;;;;;4.67;3.02;;;;;;;6.82;49.51;99625.89;2468518;79;25399;-77
2021/03/22 02:05:34;;;;;;;5.83;3.50;;;;;;;6.79;49.51;99621.49;2462426;79;25822;-77
2021/03/22 02:08:57;;;;;;;8.50;3.33;;;;;;;6.78;49.51;99625.31;2465983;79;25651;-78
2021/03/22 02:12:21;;;;;;;4.95;3.45;;;;;;;6.77;49.51;99622.28;2471144;79;25663;-77
2021/03/22 02:15:45;;;;;;;5.33;3.50;;;;;;;6.75;49.49;99618.37;2471103;80;25829;-80
2021/03/22 02:19:53;;;;;;;8.55;4.30;;;;;;;6.74;49.49;99619.61;2464614;79;25644;-79
2021/03/22 02:23:25;;;;;;;6.28;3.60;;;;;;;6.73;49.48;99619.16;2466687;79;25243;-80
2021/03/22 02:27:05;;;;;;;7.00;3.95;;;;;;;6.72;49.45;99623.89;2470529;80;25301;-76
2021/03/22 02:31:05;;;;;;;5.97;4.17;;;;;;;6.69;49.45;99625.97;2464373;79;25335;-76
2021/03/22 02:34:47;;;;;;;10.28;3.25;;;;;;;6.68;49.45;99631.09;2460932;79;25741;-75
2021/03/22 02:38:32;;;;;;;5.72;3.67;;;;;;;6.66;49.43;99632.36;2449176;79;25706;-78
2021/03/22 02:41:59;;;;;;;4.72;3.30;;;;;;;6.65;49.43;99634.50;2451325;79;25841;-76
2021/03/22 02:45:29;;;;;;;8.65;4.70;;;;;;;6.62;49.43;99641.76;2449615;79;25819;-79
2021/03/22 02:48:50;;;;;;;5.20;3.77;;;;;;;6.61;49.42;99647.78;2444661;79;25409;-78
2021/03/22 02:52:54;;;;;;;6.20;4.05;;;;;;;6.60;49.42;99645.13;2465540;78;25723;-79
2021/03/22 02:56:36;;;;;;;5.67;3.40;;;;;;;6.59;49.40;99658.93;2363691;83;25725;-77
2021/03/22 03:00:03;;;;;;;4.45;3.25;;;;;;;6.56;49.41;99663.59;2323139;84;25591;-77
2021/03/22 03:03:26;;;;;;;5.37;3.65;;;;;;;6.55;49.39;99667.03;2325645;84;25311;-76
2021/03/22 03:06:53;;;;;;;5.70;3.52;;;;;;;6.54;49.41;99664.38;2311344;84;25737;-76
2021/03/22 03:10:18;;;;;;;6.97;3.85;;;;;;;6.55;49.39;99670.05;2378128;82;25722;-76
2021/03/22 03:13:40;;;;;;;6.42;3.60;;;;;;;6.52;49.41;99673.41;2325760;84;25665;-75
2021/03/22 03:17:04;;;;;;;5.00;3.58;;;;;;;6.51;49.39;99680.70;2340872;83;25770;-77
2021/03/22 03:20:30;;;;;;;6.80;3.65;;;;;;;6.51;49.41;99677.23;2341652;84;25837;-82
2021/03/22 03:23:53;;;;;;;7.28;3.00;;;;;;;6.49;49.39;99682.39;2339796;83;25942;-80
2021/03/22 03:27:16;;;;;;;5.40;3.17;;;;;;;6.49;49.37;99681.52;2334757;83;25638;-78
2021/03/22 03:30:41;;;;;;;6.95;3.35;;;;;;;6.48;49.40;99687.11;2338924;84;25559;-77
2021/03/22 03:34:05;;;;;;;9.80;3.25;;;;;;;6.48;49.38;99695.27;2441746;79;25745;-75
2021/03/22 03:37:27;;;;;;;4.37;2.02;;;;;;;6.46;49.37;99702.14;2456998;79;26110;-77
2021/03/22 03:40:48;;;;;;;5.97;3.60;;;;;;;6.45;49.38;99693.92;2474867;78;25513;-79
2021/03/22 03:44:12;;;;;;;5.12;3.33;;;;;;;6.45;49.37;99707.73;2490681;78;25696;-78
2021/03/22 03:47:44;;;;;;;7.33;3.30;;;;;;;6.44;49.37;99708.97;2515238;78;25792;-75
2021/03/22 03:51:06;;;;;;;6.17;3.52;;;;;;;6.43;49.36;99705.92;2495871;78;25587;-75
2021/03/22 03:54:27;;;;;;;6.20;2.37;;;;;;;6.43;49.35;99710.69;2506074;78;25806;-76
2021/03/22 03:57:51;;;;;;;4.53;3.10;;;;;;;6.41;49.36;99709.75;2462144;78;25407;-75
2021/03/22 04:01:13;;;;;;;6.42;2.90;;;;;;;6.41;49.35;99714.92;2480560;78;25392;-80
2021/03/22 04:04:35;;;;;;;6.78;3.60;;;;;;;6.40;49.37;99717.06;2516510;78;25359;-79
2021/03/22 04:07:56;;;;;;;4.50;2.52;;;;;;;6.39;49.35;99722.66;2497284;78;25743;-80
2021/03/22 04:11:24;;;;;;;4.70;2.52;;;;;;;6.38;49.36;99722.63;2508450;78;25850;-75
2021/03/22 04:14:45;;;;;;;4.35;2.72;;;;;;;6.38;49.35;99721.34;2518243;78;25661;-74
2021/03/22 04:18:07;;;;;;;2.77;2.30;;;;;;;6.38;49.34;99725.22;2490689;78;25824;-74
2021/03/22 04:21:31;;;;;;;4.08;2.70;;;;;;;6.36;49.34;99725.16;2479883;78;25338;-75
2021/03/22 04:24:52;;;;;;;3.67;2.40;;;;;;;6.35;49.34;99720.83;2491507;78;25571;-75
2021/03/22 04:28:13;;;;;;;3.55;2.52;;;;;;;6.36;49.33;99725.58;2509463;78;25865;-75
2021/03/22 04:31:36;;;;;;;5.78;2.85;;;;;;;6.34;49.34;99726.81;2497143;78;25380;-74
2021/03/22 04:35:00;;;;;;;4.78;2.60;;;;;;;6.35;49.32;99726.42;2504198;78;25736;-74
2021/03/22 04:38:21;;;;;;;4.03;2.75;;;;;;;6.35;49.34;99729.88;2501670;78;25371;-74
2021/03/22 04:41:42;;;;;;;3.92;2.55;;;;;;;6.34;49.30;99728.11;2475676;78;25673;-76
2021/03/22 04:45:06;;;;;;;5.80;3.02;;;;;;;6.34;49.33;99724.64;2491143;78;25614;-75
2021/03/22 04:48:29;;;;;;;5.87;2.62;;;;;;;6.34;49.32;99728.11;2488279;78;25666;-76
2021/03/22 04:51:51;;;;;;;4.55;2.80;;;;;;;6.36;49.32;99732.05;2492182;78;25346;-74
2021/03/22 04:55:13;;;;;;;3.22;1.75;;;;;;;6.38;49.29;99732.98;2491959;78;25765;-74
2021/03/22 04:58:36;;;;;;;3.27;2.30;;;;;;;6.42;49.27;99733.53;2487517;78;25651;-76
2021/03/22 05:01:57;;;;;;;3.02;2.25;;;;;;;6.45;49.26;99727.58;2485495;78;25626;-75
2021/03/22 05:05:19;;;;;;;3.70;2.40;;;;;;;6.49;49.22;99726.83;2475368;78;25853;-76
2021/03/22 05:08:41;;;;;;;4.37;2.45;;;;;;;6.53;49.20;99730.83;2496745;78;25559;-78
2021/03/22 05:12:08;;;;;;;4.47;3.10;;;;;;;6.58;49.14;99737.05;2506796;78;25605;-76
2021/03/22 05:15:30;;;;;;;5.70;2.95;;;;;;;6.63;49.12;99730.27;2506299;78;25681;-81
2021/03/22 05:18:53;;;;;;;4.35;3.00;;;;;;;6.69;49.02;99728.28;2512696;78;26132;-74
2021/03/22 05:22:14;;;;;;;4.70;3.40;;;;;;;6.74;48.99;99734.45;2486181;78;25798;-75
2021/03/22 05:25:36;;;;;;;5.97;2.58;;;;;;;6.79;48.94;99728.13;2497205;78;25615;-75
2021/03/22 05:28:59;;;;;;;5.42;2.60;;;;;;;6.84;48.90;99739.48;2489526;78;25885;-76
2021/03/22 05:32:34;;;;;;;4.87;2.95;;;;;;;6.88;48.84;99740.02;2500464;78;25827;-80
2021/03/22 05:36:00;;;;;;;4.72;3.08;;;;;;;6.93;48.81;99736.28;2480130;78;25766;-75
2021/03/22 05:39:21;;;;;;;4.80;2.65;;;;;;;6.97;48.76;99737.70;2512488;78;25689;-76
2021/03/22 05:43:08;;;;;;;5.17;2.58;;;;;;;7.02;48.71;99741.31;2500063;78;25628;-75
2021/03/22 05:46:41;;;;;;;5.62;2.90;;;;;;;7.08;48.66;99744.46;2506661;78;25553;-80
2021/03/22 05:50:14;;;;;;;5.22;2.98;;;;;;;7.15;48.62;99748.97;2484989;78;25714;-78
2021/03/22 05:54:11;;;;;;;4.83;3.80;;;;;;;7.24;48.52;99753.54;2457096;78;25778;-76
2021/03/22 05:58:04;;;;;;;6.12;3.15;;;;;;;7.32;48.46;99762.00;2487985;78;25599;-75
2021/03/22 06:01:40;;;;;;;5.97;3.33;;;;;;;7.44;48.34;99764.44;2517522;78;25667;-78
2021/03/22 06:05:15;;;;;;;4.47;3.50;;;;;;;7.52;48.27;99778.05;2508358;78;25753;-75
2021/03/22 06:08:51;;;;;;;6.10;2.98;;;;;;;7.60;48.21;99774.38;2497782;78;25423;-75
2021/03/22 06:12:54;;;;;;;4.87;3.37;;;;;;;7.68;48.14;99787.12;2485607;78;25796;-77
2021/03/22 06:16:27;;;;;;;6.03;3.85;;;;;;;7.78;48.07;99789.53;2489833;78;25791;-81
2021/03/22 06:19:54;;;;;;;5.72;3.02;;;;;;;7.90;47.97;99794.16;2490663;78;25828;-81
2021/03/22 06:23:38;;;;;;;4.72;3.17;;;;;;;8.01;47.85;99790.11;2519187;78;25389;-76
2021/03/22 06:27:01;;;;;;;7.33;3.77;;;;;;;8.11;47.75;99790.78;2463073;78;25578;-76
2021/03/22 06:30:25;;;;;;;6.67;3.17;;;;;;;8.22;47.65;99800.98;2510790;78;25791;-75
2021/03/22 06:33:51;;;;;;;5.00;3.62;;;;;;;8.33;47.54;99803.83;2482413;78;25671;-75
2021/03/22 06:37:16;;;;;;;8.63;3.62;;;;;;;8.44;47.44;99802.41;2500347;78;25812;-75
2021/03/22 06:40:38;;;;;;;5.25;3.35;;;;;;;8.58;47.32;99804.02;2518236;78;25672;-76
2021/03/22 06:44:04;;;;;;;6.00;3.67;;;;;;;8.74;47.17;99807.81;2489837;78;25870;-75
2021/03/22 06:47:32;;;;;;;4.97;3.20;;;;;;;8.91;47.04;99813.38;2475492;78;25646;-80
2021/03/22 06:51:11;;;;;;;5.00;3.50;;;;;;;9.10;46.89;99814.64;2480270;78;25371;-75
2021/03/22 06:54:38;;;;;;;9.03;4.58;;;;;;;9.31;46.69;99816.36;2481107;78;25772;-76
2021/03/22 06:58:03;;;;;;;5.37;3.33;;;;;;;9.52;46.48;99827.63;2490079;78;25633;-74
2021/03/22 07:01:29;;;;;;;7.75;3.72;;;;;;;9.72;46.29;99823.19;2467809;78;25761;-75
2021/03/22 07:04:51;;;;;;;6.95;4.25;;;;;;;9.88;46.08;99827.82;2495965;78;25899;-77
2021/03/22 07:08:19;;;;;;;5.35;3.80;;;;;;;10.05;45.90;99836.80;2515865;78;26027;-75
2021/03/22 07:11:47;;;;;;;6.70;3.72;;;;;;;10.15;45.74;99837.83;2519804;78;25665;-75
2021/03/22 07:15:31;;;;;;;5.00;4.15;;;;;;;10.22;45.58;99844.02;2502569;78;25341;-77
2021/03/22 07:19:15;;;;;;;5.12;3.77;;;;;;;10.33;45.49;99842.09;2501491;78;25626;-80
2021/03/22 07:22:37;;;;;;;6.42;4.12;;;;;;;10.52;45.37;99846.27;2481203;78;25965;-74
2021/03/22 07:26:04;;;;;;;9.18;4.05;;;;;;;10.76;45.18;99849.23;2466983;78;25323;-77
2021/03/22 07:29:32;;;;;;;7.15;4.10;;;;;;;11.02;45.02;99857.42;2449081;79;25870;-77
2021/03/22 07:33:36;;;;;;;7.17;4.37;;;;;;;11.28;44.72;99857.76;2494072;78;25347;-77
2021/03/22 07:37:41;;;;;;;5.05;4.28;;;;;;;11.64;44.51;99862.94;2505044;79;25346;-75
2021/03/22 07:41:39;;;;;;;5.67;4.45;;;;;;;12.04;44.04;99860.77;2491700;78;26090;-76
2021/03/22 07:45:25;;;;;;;7.90;3.95;;;;;;;12.47;43.57;99868.55;2469679;78;25507;-76
2021/03/22 07:49:16;;;;;;;6.87;4.42;;;;;;;13.09;43.19;99871.55;2472278;78;25616;-77
2021/03/22 07:52:43;;;;;;;9.30;4.60;;;;;;;13.87;42.44;99876.69;2479654;78;25619;-77
2021/03/22 07:56:34;;;;;;;6.40;4.75;;;;;;;13.89;41.88;99877.55;2460981;79;25918;-76
2021/03/22 08:00:07;;;;;;;8.08;4.50;;;;;;;14.08;41.62;99882.40;2456122;79;25639;-76
2021/03/22 08:03:55;;;;;;;10.18;4.90;;;;;;;13.82;41.45;99898.50;2444168;79;25569;-80
2021/03/22 08:07:43;;;;;;;6.83;4.28;;;;;;;13.44;41.53;99905.36;2468127;79;25477;-77
2021/03/22 08:11:28;;;;;;;6.37;4.70;;;;;;;13.06;41.72;99905.55;2453894;79;25651;-75
2021/03/22 08:14:55;;;;;;;6.87;4.17;;;;;;;12.71;41.96;99904.45;2418550;81;25359;-74
2021/03/22 08:18:31;;;;;;;8.20;5.00;;;;;;;12.46;42.20;99903.84;2430092;79;25817;-76
2021/03/22 08:22:08;;;;;;;10.18;4.85;;;;;;;12.27;42.42;99905.41;2463645;80;25919;-75
2021/03/22 08:25:51;;;;;;;5.75;4.72;;;;;;;12.11;42.64;99910.04;2424794;81;25846;-73
2021/03/22 08:29:32;;;;;;;6.33;3.62;;;;;;;12.20;42.87;99903.16;2460004;79;25853;-75
2021/03/22 08:33:02;;;;;;;6.87;4.12;;;;;;;12.96;42.63;99905.52;2390180;80;25693;-76
2021/03/22 08:37:19;;;;;;;10.25;6.25;;;;;;;14.22;42.15;99894.66;2605082;76;31465;-78
2021/03/22 08:45:44;;;;;;;10.48;5.60;;;;;;;20.13;36.73;99896.64;2416621;79;31430;-81
2021/03/22 08:49:26;;;;;;;6.00;4.75;;;;;;;21.48;34.76;99913.94;2310050;82;25636;-77
2021/03/22 08:53:10;;;;;;;7.08;4.50;;;;;;;21.21;33.13;99919.06;2303878;84;25917;-80
2021/03/22 08:56:39;;;;;;;7.62;4.90;;;;;;;20.36;33.06;99928.73;2306872;83;25641;-78
2021/03/22 09:00:30;;;;;;;7.40;5.08;;;;;;;19.50;33.01;99931.88;2314674;82;25867;-80
2021/03/22 09:03:58;;;;;;;7.83;4.72;;;;;;;18.84;32.80;99923.89;2292132;84;25481;-80
2021/03/22 09:07:35;;;;;;;16.23;5.70;;;;;;;17.88;32.72;99914.80;2479340;78;30858;-79
2021/03/22 09:11:33;;;;;;;11.20;5.10;;;;;;;17.03;33.13;99914.03;2426184;80;25304;-79
2021/03/22 09:14:55;;;;;;;8.58;4.92;;;;;;;16.32;33.34;99908.03;2469614;80;25544;-79
2021/03/22 09:18:21;;;;;;;5.10;3.90;;;;;;;15.70;33.88;99908.87;2464947;80;25802;-79
2021/03/22 09:21:53;;;;;;;5.67;4.37;;;;;;;15.52;33.96;99912.84;2460426;80;25575;-81
2021/03/22 09:25:48;;;;;;;9.73;4.80;;;;;;;16.52;34.07;99904.80;2467661;80;25757;-80
2021/03/22 09:29:33;;;;;;;6.25;4.28;;;;;;;18.75;33.06;99904.70;2470857;80;25698;-80
2021/03/22 09:32:54;;;;;;;5.53;4.08;;;;;;;21.09;31.62;99917.20;2390557;82;25598;-81
2021/03/22 09:36:40;;;;;;;6.60;4.03;;;;;;;22.96;30.23;99920.38;2348989;84;25700;-80
2021/03/22 09:40:22;;;;;;;7.95;4.10;;;;;;;24.42;28.88;99915.81;2349107;84;25472;-79
2021/03/22 09:43:49;;;;;;;4.60;3.27;;;;;;;25.52;27.56;99920.89;2270928;84;25769;-80
2021/03/22 09:47:19;;;;;;;4.22;3.30;;;;;;;26.70;26.21;99923.33;2296995;86;25555;-81
2021/03/22 09:50:44;;;;;;;3.72;2.42;;;;;;;27.23;25.20;99929.55;2299349;86;25591;-82
2021/03/22 09:54:11;;;;;;;5.65;2.55;;;;;;;27.92;24.43;99932.57;2299931;86;25807;-81
2021/03/22 09:57:46;;;;;;;3.92;2.37;;;;;;;28.56;23.82;99937.47;2300205;84;25702;-80
2021/03/22 10:01:35;;;;;;;2.50;2.12;;;;;;;29.01;23.46;99935.26;2311557;85;25796;-78
2021/03/22 10:05:20;;;;;;;;;;;;;;;;;;;;;
2021/03/22 10:08:46;;;;;;;3.20;2.92;;;;;;;30.94;23.56;99945.83;2616256;74;26011;-80
2021/03/22 10:27:27;;;;;;;4.35;2.85;;;;;;;32.40;20.22;99964.72;2377763;80;26236;-81
2021/03/22 10:31:25;;;;;;;6.20;2.92;;;;;;;31.81;20.91;99951.02;2367160;82;25752;-81
2021/03/22 10:35:22;;;;;;;3.65;2.50;;;;;;;31.54;20.78;99941.72;2332588;81;25783;-82
2021/03/22 10:43:04;;;;;;;2.55;2.20;;;;;;;30.67;18.83;99933.72;2356746;80;25858;-80
2021/03/22 10:46:34;;;;;;;4.50;2.58;;;;;;;30.40;18.46;99931.52;2364186;79;25801;-82
2021/03/22 10:50:36;;;;;;;2.90;2.60;;;;;;;30.42;18.37;99936.33;2341323;82;25648;-82
2021/03/22 10:55:07;;;;;;;;;;;;;;;;;;;;;
2021/03/22 10:58:51;;;;;;;4.22;2.55;;;;;;;29.02;19.01;99930.75;2615179;74;25677;-83
2021/03/22 11:02:58;;;;;;;;;;;;;;;;;;;;;
2021/03/22 11:06:15;;;;;;;4.35;2.60;;;;;;;30.02;19.27;99917.39;2339933;83;25749;-81
2021/03/22 11:10:15;;;;;;;4.45;2.75;;;;;;;30.30;19.05;99917.33;2463524;78;25620;-82
2021/03/22 11:13:44;;;;;;;6.70;3.20;;;;;;;30.51;19.25;99916.87;2405233;81;25700;-80
2021/03/22 11:17:19;;;;;;;4.30;2.80;;;;;;;29.73;19.46;99920.58;2406074;81;25997;-84
2021/03/22 11:20:57;;;;;;;8.00;1.75;;;;;;;29.19;20.23;99915.82;2379604;82;26325;-84
2021/03/22 11:24:45;;;;;;;7.90;1.67;;;;;;;29.15;18.71;99910.27;2371301;82;25754;-81
2021/03/22 11:28:25;;;;;;;8.75;2.40;;;;;;;28.11;18.10;99904.25;2396187;82;25913;-83
2021/03/22 11:31:51;;;;;;;5.90;1.50;;;;;;;26.47;18.10;99904.41;2384457;82;25711;-80
2021/03/22 11:35:30;;;;;;;1.85;1.37;;;;;;;24.95;18.17;99901.17;2384645;82;25446;-82
2021/03/22 11:39:01;;;;;;;2.52;1.40;;;;;;;23.67;18.17;99907.19;2366639;83;25613;-81
2021/03/22 11:42:36;;;;;;;3.15;1.12;;;;;;;22.47;18.72;99898.08;2366184;81;25773;-80
2021/03/22 11:46:17;;;;;;;3.65;1.42;;;;;;;21.52;19.21;99898.34;2366477;82;25664;-80
2021/03/22 11:49:45;;;;;;;2.05;1.40;;;;;;;20.79;19.74;99895.92;2365540;83;25868;-81
2021/03/22 11:53:18;;;;;;;3.90;1.67;;;;;;;20.09;20.34;99897.16;2365978;82;25694;-80
2021/03/22 11:56:42;;;;;;;6.55;1.60;;;;;;;19.54;20.80;99901.86;2350414;83;25744;-81
2021/03/22 12:00:23;;;;;;;2.55;1.67;;;;;;;19.53;21.35;99902.74;2351695;82;25686;-82
2021/03/22 12:04:16;;;;;;;3.65;1.60;;;;;;;20.08;21.66;99887.92;2407222;81;25608;-84
2021/03/22 12:07:51;;;;;;;2.17;1.60;;;;;;;20.88;21.60;99889.04;2397461;81;25542;-82
2021/03/22 12:11:48;;;;;;;4.42;1.85;;;;;;;20.92;21.29;99878.80;2228998;87;25789;-82
2021/03/22 12:26:18;;;;;;;3.83;1.40;;;;;;;18.55;21.91;99883.42;2350978;79;30817;-85
2021/03/22 12:29:40;;;;;;;2.00;1.30;;;;;;;19.23;21.95;99894.97;2330636;84;25890;-86
2021/03/22 12:33:04;;;;;;;9.70;1.72;;;;;;;19.07;21.60;99883.86;2321084;84;26398;-79
2021/03/22 12:36:26;;;;;;;3.08;1.50;;;;;;;18.57;21.73;99882.96;2315629;84;25894;-79
2021/03/22 12:39:48;;;;;;;5.72;1.32;;;;;;;18.06;21.83;99878.95;2309406;84;25980;-80
2021/03/22 12:43:23;;;;;;;5.80;2.00;;;;;;;17.61;21.99;99884.37;2292391;84;26319;-79
2021/03/22 12:46:45;;;;;;;3.10;1.22;;;;;;;17.18;22.39;99886.23;2328800;83;25789;-81
